Time;durP1;ratioP1;P1;durP2;ratioP2;P2;SDS_P1;SDS_P2;PMS_P1;PMS_P2;Temp;Humidity;BMP_temperature;BMP_pressure;BME280_temperature;BME280_humidity;BME280_pressure;Samples;Min_cycle;Max_cycle;Signal;HPM_P1;HPM_P2
2022/03/05 00:00:48;;;;;;;24.38;13.25;;;5.10;77.50;;;;;;5030038;28;20088;-80
2022/03/05 00:03:14;;;;;;;23.50;13.73;;;5.20;77.00;;;;;;5030740;28;20069;-80
2022/03/05 00:05:40;;;;;;;26.30;14.82;;;5.20;76.90;;;;;;5029130;28;20030;-78
2022/03/05 00:08:09;;;;;;;26.00;13.82;;;5.20;76.80;;;;;;5011994;28;20045;-77
2022/03/05 00:10:36;;;;;;;25.05;14.45;;;5.30;76.70;;;;;;5013960;28;20026;-78
2022/03/05 00:13:01;;;;;;;26.88;14.95;;;5.30;76.60;;;;;;5017613;28;20033;-80
2022/03/05 00:15:28;;;;;;;25.70;14.50;;;5.30;76.30;;;;;;5031013;28;20132;-79
2022/03/05 00:17:55;;;;;;;28.25;15.07;;;5.20;76.60;;;;;;5017740;28;20033;-79
2022/03/05 00:20:21;;;;;;;25.30;14.88;;;5.10;77.10;;;;;;5017156;28;20551;-78
2022/03/05 00:22:47;;;;;;;31.75;16.30;;;5.10;77.40;;;;;;5017928;28;20442;-77
2022/03/05 00:25:13;;;;;;;27.92;15.30;;;5.10;77.20;;;;;;5016927;28;20394;-77
2022/03/05 00:27:40;;;;;;;27.65;14.90;;;5.10;77.30;;;;;;5017818;28;20036;-77
2022/03/05 00:30:06;;;;;;;30.40;13.98;;;5.10;77.50;;;;;;5015896;28;20037;-78
2022/03/05 00:32:32;;;;;;;27.40;15.32;;;5.00;77.40;;;;;;5018309;28;20030;-77
2022/03/05 00:34:58;;;;;;;25.98;14.15;;;4.90;77.90;;;;;;5015838;28;20046;-78
2022/03/05 00:37:24;;;;;;;28.60;15.30;;;4.90;78.20;;;;;;5018256;28;20030;-78
2022/03/05 00:39:49;;;;;;;26.92;14.82;;;4.90;78.50;;;;;;5015808;28;20054;-78
2022/03/05 00:42:15;;;;;;;27.80;14.63;;;5.00;78.50;;;;;;5018436;28;20400;-76
2022/03/05 00:44:41;;;;;;;28.83;15.50;;;5.00;78.30;;;;;;5015987;28;20205;-76
2022/03/05 00:47:07;;;;;;;26.58;13.68;;;5.10;78.00;;;;;;5019038;28;20044;-77
2022/03/05 00:49:33;;;;;;;30.45;15.95;;;5.20;77.80;;;;;;5015769;28;20045;-78
2022/03/05 00:51:58;;;;;;;29.48;15.35;;;5.20;77.20;;;;;;5028905;28;20033;-77
2022/03/05 00:54:24;;;;;;;32.30;15.82;;;5.30;77.10;;;;;;5024850;28;20029;-78
2022/03/05 00:56:49;;;;;;;26.80;14.65;;;5.20;77.00;;;;;;5018906;28;20353;-77
2022/03/05 00:59:15;;;;;;;28.27;15.13;;;5.10;77.20;;;;;;5015405;28;20030;-78
2022/03/05 01:01:41;;;;;;;26.77;15.13;;;5.10;77.40;;;;;;5018538;28;20044;-77
2022/03/05 01:04:09;;;;;;;24.83;13.93;;;5.20;77.40;;;;;;5033363;28;20468;-77
2022/03/05 01:06:35;;;;;;;30.10;15.80;;;5.30;77.20;;;;;;5030632;28;20042;-78
2022/03/05 01:09:02;;;;;;;28.83;15.45;;;5.30;76.80;;;;;;5016364;28;20041;-82
2022/03/05 01:11:28;;;;;;;28.63;15.30;;;5.20;77.00;;;;;;5022456;28;20490;-84
2022/03/05 01:13:54;;;;;;;29.38;14.60;;;5.10;77.10;;;;;;5033256;28;20025;-82
2022/03/05 01:16:22;;;;;;;28.40;15.68;;;5.00;77.70;;;;;;5031412;28;20096;-78
2022/03/05 01:18:48;;;;;;;29.15;14.98;;;5.00;78.10;;;;;;5016428;28;20400;-78
2022/03/05 01:21:14;;;;;;;26.52;14.93;;;5.10;77.70;;;;;;5016524;28;20034;-78
2022/03/05 01:23:40;;;;;;;30.35;16.15;;;5.10;77.70;;;;;;5031831;28;20042;-78
2022/03/05 01:26:06;;;;;;;28.55;15.63;;;5.20;78.00;;;;;;5033277;28;20447;-78
2022/03/05 01:28:32;;;;;;;29.10;15.85;;;5.10;77.80;;;;;;5017012;28;20033;-78
2022/03/05 01:31:00;;;;;;;29.45;15.55;;;5.10;78.60;;;;;;5016034;28;20034;-78
2022/03/05 01:33:26;;;;;;;34.47;17.20;;;5.10;78.40;;;;;;5030307;28;20037;-78
2022/03/05 01:35:52;;;;;;;32.83;16.77;;;5.00;78.20;;;;;;5032689;28;20167;-78
2022/03/05 01:38:21;;;;;;;28.75;16.38;;;5.00;78.70;;;;;;5031262;28;20037;-78
2022/03/05 01:40:47;;;;;;;33.10;16.60;;;4.80;78.90;;;;;;5000843;28;20034;-78
2022/03/05 01:43:15;;;;;;;28.80;16.63;;;4.80;78.90;;;;;;5013682;28;20056;-78
2022/03/05 01:45:44;;;;;;;35.00;17.90;;;4.70;79.50;;;;;;5013957;28;20033;-78
2022/03/05 01:48:10;;;;;;;29.58;16.30;;;4.70;79.40;;;;;;5014152;28;20037;-77
2022/03/05 01:50:35;;;;;;;27.05;15.07;;;4.70;79.50;;;;;;5013982;28;20037;-77
2022/03/05 01:53:01;;;;;;;32.00;16.73;;;4.80;79.30;;;;;;5013687;28;20025;-77
2022/03/05 01:55:36;;;;;;;30.33;16.23;;;4.80;79.10;;;;;;5014050;28;20037;-77
2022/03/05 01:58:03;;;;;;;32.40;16.85;;;4.70;79.40;;;;;;5014161;28;20059;-78
2022/03/05 02:00:28;;;;;;;32.15;16.05;;;4.70;79.70;;;;;;5013716;28;20038;-77
2022/03/05 02:02:54;;;;;;;29.58;16.10;;;4.70;79.60;;;;;;5013669;28;20445;-78
2022/03/05 02:05:19;;;;;;;31.17;17.13;;;4.70;79.90;;;;;;5013138;28;20038;-77
2022/03/05 02:07:46;;;;;;;30.27;16.55;;;4.70;79.60;;;;;;5013318;28;20062;-79
2022/03/05 02:10:12;;;;;;;32.83;17.20;;;4.80;79.90;;;;;;5013458;28;20034;-79
2022/03/05 02:12:38;;;;;;;30.60;16.65;;;4.80;79.40;;;;;;5013642;28;20520;-79
2022/03/05 02:15:06;;;;;;;31.05;17.48;;;4.80;79.10;;;;;;5013526;28;20065;-79
2022/03/05 02:17:32;;;;;;;30.30;16.35;;;4.80;79.10;;;;;;5012027;28;20040;-77
2022/03/05 02:20:01;;;;;;;33.92;17.25;;;4.70;79.40;;;;;;5013217;28;20030;-78
2022/03/05 02:22:26;;;;;;;33.55;17.98;;;4.70;79.60;;;;;;5012992;28;20033;-77
2022/03/05 02:24:58;;;;;;;38.22;18.60;;;4.70;79.30;;;;;;5013378;28;20037;-77
2022/03/05 02:27:25;;;;;;;36.65;18.63;;;4.70;79.40;;;;;;5013753;28;20030;-78
2022/03/05 02:29:51;;;;;;;37.00;17.95;;;4.70;79.60;;;;;;5013425;28;20049;-78
2022/03/05 02:32:17;;;;;;;37.33;19.42;;;4.60;79.50;;;;;;5013138;28;20108;-78
2022/03/05 02:34:43;;;;;;;36.15;18.45;;;4.50;79.80;;;;;;5013044;28;20069;-77
2022/03/05 02:37:10;;;;;;;35.35;18.42;;;4.50;80.40;;;;;;5013680;28;20034;-77
2022/03/05 02:39:36;;;;;;;37.97;19.33;;;4.50;80.20;;;;;;5023584;28;20488;-78
2022/03/05 02:42:02;;;;;;;36.08;18.98;;;4.50;80.10;;;;;;5024046;28;20049;-77
2022/03/05 02:44:28;;;;;;;35.90;19.00;;;4.50;80.40;;;;;;5025711;28;20045;-78
2022/03/05 02:46:53;;;;;;;34.35;18.27;;;4.60;79.80;;;;;;5029879;28;20049;-78
2022/03/05 02:49:19;;;;;;;41.15;21.17;;;4.50;79.90;;;;;;5022197;28;20112;-77
2022/03/05 02:51:44;;;;;;;35.67;19.02;;;4.60;79.90;;;;;;5014862;28;20030;-78
2022/03/05 02:54:10;;;;;;;34.95;19.23;;;4.40;80.40;;;;;;5015768;28;20120;-78
2022/03/05 02:56:36;;;;;;;36.25;19.05;;;4.40;80.70;;;;;;5014866;28;20033;-78
2022/03/05 02:59:02;;;;;;;39.90;20.17;;;4.40;80.80;;;;;;5020029;28;20091;-78
2022/03/05 03:01:27;;;;;;;40.22;20.23;;;4.50;80.30;;;;;;5031358;28;20076;-78
2022/03/05 03:03:53;;;;;;;39.55;20.15;;;4.30;80.30;;;;;;5031493;28;20053;-77
2022/03/05 03:06:18;;;;;;;39.75;19.33;;;4.30;81.00;;;;;;5031816;28;20362;-77
2022/03/05 03:08:44;;;;;;;39.15;20.17;;;4.40;81.20;;;;;;5024504;28;20030;-77
2022/03/05 03:11:10;;;;;;;39.42;19.33;;;4.30;80.80;;;;;;5014717;28;20575;-77
2022/03/05 03:13:37;;;;;;;36.70;19.30;;;4.30;80.90;;;;;;5031104;28;20052;-77
2022/03/05 03:16:05;;;;;;;38.40;19.77;;;4.20;81.20;;;;;;5016440;28;20033;-79
2022/03/05 03:18:31;;;;;;;40.72;19.48;;;4.20;81.50;;;;;;5017430;28;20045;-79
2022/03/05 03:20:56;;;;;;;37.35;19.05;;;4.30;81.30;;;;;;5031343;28;20030;-79
2022/03/05 03:23:22;;;;;;;40.38;21.17;;;4.30;81.20;;;;;;5030864;28;20506;-79
2022/03/05 03:25:48;;;;;;;39.92;20.75;;;4.20;81.00;;;;;;5029654;28;20064;-79
2022/03/05 03:28:13;;;;;;;42.75;20.52;;;4.00;81.40;;;;;;5030854;28;20116;-79
2022/03/05 03:30:39;;;;;;;40.10;20.90;;;3.90;82.30;;;;;;5016472;28;20491;-79
2022/03/05 03:33:04;;;;;;;41.78;21.83;;;3.90;82.90;;;;;;5013521;28;20034;-79
2022/03/05 03:35:30;;;;;;;41.42;20.95;;;3.90;82.70;;;;;;5018477;28;20077;-79
2022/03/05 03:37:56;;;;;;;42.47;22.15;;;3.90;82.50;;;;;;5022530;28;20034;-79
2022/03/05 03:40:22;;;;;;;41.80;20.67;;;3.80;82.60;;;;;;5013699;28;20049;-80
2022/03/05 03:42:50;;;;;;;43.28;20.17;;;3.80;83.10;;;;;;5013043;28;20177;-79
2022/03/05 03:45:17;;;;;;;45.47;22.77;;;3.80;83.10;;;;;;5012688;28;20117;-79
2022/03/05 03:47:46;;;;;;;41.20;20.42;;;3.80;83.00;;;;;;5014963;28;20029;-79
2022/03/05 03:50:14;;;;;;;46.10;22.15;;;3.80;83.50;;;;;;5016691;28;20056;-79
2022/03/05 03:52:39;;;;;;;44.05;22.20;;;3.80;83.20;;;;;;5016110;28;20030;-80
2022/03/05 03:55:08;;;;;;;40.78;20.45;;;3.70;83.30;;;;;;5015252;28;20545;-79
2022/03/05 03:57:34;;;;;;;48.10;22.98;;;3.70;83.50;;;;;;5008165;28;20037;-79
2022/03/05 03:59:59;;;;;;;44.70;21.25;;;3.80;83.60;;;;;;5016008;28;20449;-80
2022/03/05 04:02:25;;;;;;;41.88;21.33;;;3.70;83.30;;;;;;5016207;28;20133;-80
2022/03/05 04:04:50;;;;;;;41.53;21.35;;;3.70;83.80;;;;;;5016060;28;20048;-80
2022/03/05 04:10:01;;;;;;;42.33;20.98;;;3.60;83.60;;;;;;5016175;28;20073;-80
2022/03/05 04:12:26;;;;;;;43.72;21.83;;;3.50;84.20;;;;;;5004502;28;20113;-80
2022/03/05 04:14:54;;;;;;;43.22;19.77;;;3.40;85.00;;;;;;5016067;28;20053;-80
2022/03/05 04:17:21;;;;;;;47.40;21.55;;;3.50;85.40;;;;;;5015593;28;20088;-80
2022/03/05 04:19:46;;;;;;;46.58;22.75;;;3.60;84.40;;;;;;5015925;28;20386;-80
2022/03/05 04:22:12;;;;;;;45.97;20.88;;;3.60;84.20;;;;;;5015586;28;20026;-80
2022/03/05 04:24:37;;;;;;;42.13;21.45;;;3.60;83.90;;;;;;5016016;28;20034;-80
2022/03/05 04:27:03;;;;;;;50.10;22.75;;;3.60;84.30;;;;;;5015722;28;20033;-79
2022/03/05 04:29:29;;;;;;;43.95;21.58;;;3.60;84.00;;;;;;5015590;28;20033;-79
2022/03/05 04:31:55;;;;;;;40.90;19.90;;;3.60;83.90;;;;;;5015199;28;20373;-79
2022/03/05 04:34:21;;;;;;;44.63;20.73;;;3.60;83.90;;;;;;5016045;28;20040;-79
2022/03/05 04:36:46;;;;;;;45.25;22.02;;;3.60;84.10;;;;;;5015185;28;20465;-80
2022/03/05 04:39:12;;;;;;;43.10;20.90;;;3.60;83.60;;;;;;5022590;28;20117;-79
2022/03/05 04:41:38;;;;;;;42.30;21.48;;;3.60;83.60;;;;;;5022812;28;20034;-79
2022/03/05 04:44:04;;;;;;;44.80;21.55;;;3.60;83.90;;;;;;5031167;28;20409;-79
2022/03/05 04:46:30;;;;;;;46.80;21.80;;;3.70;83.70;;;;;;5033609;28;20465;-79
2022/03/05 04:48:56;;;;;;;45.10;22.23;;;3.70;83.30;;;;;;5020865;28;20032;-80
2022/03/05 04:51:21;;;;;;;42.92;21.23;;;3.60;83.30;;;;;;5016745;28;20030;-79
2022/03/05 04:53:47;;;;;;;41.88;20.63;;;3.50;83.60;;;;;;5027659;28;20026;-78
2022/03/05 04:56:12;;;;;;;38.80;19.52;;;3.40;84.10;;;;;;5033571;28;20025;-78
2022/03/05 04:58:38;;;;;;;45.53;20.90;;;3.40;84.30;;;;;;5024142;28;20079;-78
2022/03/05 05:01:03;;;;;;;39.17;19.42;;;3.50;84.20;;;;;;5020392;28;20412;-78
2022/03/05 05:03:29;;;;;;;45.15;21.50;;;3.50;84.20;;;;;;5025941;28;20034;-78
2022/03/05 05:05:56;;;;;;;42.97;21.08;;;3.60;84.10;;;;;;5020548;28;20108;-79
2022/03/05 05:08:21;;;;;;;43.28;20.30;;;3.60;83.60;;;;;;5020020;28;20035;-78
2022/03/05 05:10:47;;;;;;;47.38;21.60;;;3.50;83.80;;;;;;5032960;28;20028;-79
2022/03/05 05:13:12;;;;;;;42.17;20.90;;;3.60;83.90;;;;;;5028759;28;20390;-79
2022/03/05 05:15:38;;;;;;;42.40;20.48;;;3.60;83.70;;;;;;5017082;28;20033;-79
2022/03/05 05:18:04;;;;;;;49.50;21.40;;;3.60;83.50;;;;;;5031908;28;20029;-78
2022/03/05 05:20:30;;;;;;;46.50;21.58;;;3.60;83.20;;;;;;5031656;28;20021;-79
2022/03/05 05:22:55;;;;;;;42.35;20.27;;;3.60;82.90;;;;;;5018088;28;20041;-78
2022/03/05 05:25:21;;;;;;;44.50;20.10;;;3.50;83.60;;;;;;5016880;28;20375;-78
2022/03/05 05:27:47;;;;;;;43.15;20.30;;;3.40;83.60;;;;;;5029568;28;20073;-78
2022/03/05 05:30:12;;;;;;;46.15;21.73;;;3.40;84.20;;;;;;5031261;28;20029;-78
2022/03/05 05:32:38;;;;;;;46.35;21.17;;;3.40;84.20;;;;;;5020752;28;20044;-78
2022/03/05 05:35:05;;;;;;;44.88;20.45;;;3.40;84.70;;;;;;5016999;28;20022;-78
2022/03/05 05:37:31;;;;;;;44.55;20.90;;;3.50;84.60;;;;;;5026958;28;20026;-78
2022/03/05 05:39:57;;;;;;;48.08;22.55;;;3.40;83.80;;;;;;5032333;28;20045;-78
2022/03/05 05:42:23;;;;;;;41.17;20.17;;;3.40;84.40;;;;;;5022845;28;20122;-78
2022/03/05 05:44:48;;;;;;;43.95;20.83;;;3.40;84.20;;;;;;5015930;28;20405;-78
2022/03/05 05:47:14;;;;;;;43.47;20.05;;;3.40;84.10;;;;;;5016770;28;20022;-78
2022/03/05 05:49:39;;;;;;;47.80;21.55;;;3.40;84.00;;;;;;5026895;28;20029;-78
2022/03/05 05:52:08;;;;;;;44.47;20.90;;;3.50;84.20;;;;;;5025884;28;20468;-78
2022/03/05 05:54:34;;;;;;;44.92;21.63;;;3.50;83.70;;;;;;5015850;28;20049;-78
2022/03/05 05:57:02;;;;;;;44.83;20.23;;;3.60;83.70;;;;;;5020639;28;20477;-78
2022/03/05 05:59:28;;;;;;;42.38;19.73;;;3.60;83.80;;;;;;5032574;28;20030;-78
2022/03/05 06:01:54;;;;;;;48.65;20.90;;;3.70;83.20;;;;;;5028555;28;20076;-78
2022/03/05 06:04:19;;;;;;;43.38;20.33;;;3.70;83.10;;;;;;5016376;28;20106;-78
2022/03/05 06:06:45;;;;;;;48.15;22.10;;;3.70;82.80;;;;;;5029143;28;20037;-78
2022/03/05 06:09:11;;;;;;;42.95;21.45;;;3.60;82.60;;;;;;5018382;28;20100;-78
2022/03/05 06:11:36;;;;;;;47.92;22.08;;;3.40;83.10;;;;;;5015851;28;20544;-78
2022/03/05 06:14:02;;;;;;;44.60;21.00;;;3.30;83.90;;;;;;5032409;28;20033;-81
2022/03/05 06:16:27;;;;;;;46.60;22.15;;;3.20;84.50;;;;;;5026513;28;20052;-81
2022/03/05 06:18:53;;;;;;;42.00;20.75;;;3.10;85.00;;;;;;5019452;28;20030;-82
2022/03/05 06:21:19;;;;;;;43.80;21.63;;;3.00;85.70;;;;;;5027650;28;20065;-82
2022/03/05 06:23:44;;;;;;;43.10;20.02;;;3.10;86.00;;;;;;5017170;28;20042;-82
2022/03/05 06:26:10;;;;;;;47.42;22.15;;;3.10;86.00;;;;;;5025755;28;20388;-81
2022/03/05 06:28:36;;;;;;;44.10;21.15;;;3.20;85.40;;;;;;5019318;28;20033;-81
2022/03/05 06:31:02;;;;;;;47.75;21.33;;;3.20;85.70;;;;;;5020008;28;20022;-81
2022/03/05 06:33:28;;;;;;;47.70;21.83;;;3.40;85.40;;;;;;5016198;28;20038;-82
2022/03/05 06:35:54;;;;;;;46.50;21.17;;;3.40;84.90;;;;;;5017600;28;20260;-81
2022/03/05 06:38:19;;;;;;;42.45;20.33;;;3.40;84.80;;;;;;5024302;28;20451;-81
2022/03/05 06:40:45;;;;;;;48.67;21.80;;;3.50;84.80;;;;;;5025062;28;20056;-81
2022/03/05 06:43:11;;;;;;;44.70;21.48;;;3.60;84.20;;;;;;5014705;28;20116;-82
2022/03/05 06:45:37;;;;;;;43.25;21.13;;;3.50;83.90;;;;;;5020654;28;20045;-82
2022/03/05 06:48:04;;;;;;;45.50;20.83;;;3.40;84.10;;;;;;5024645;28;20025;-82
2022/03/05 06:50:30;;;;;;;46.90;21.65;;;3.50;84.10;;;;;;5014177;28;20036;-82
2022/03/05 06:52:56;;;;;;;48.05;23.15;;;3.40;83.90;;;;;;5012385;28;20030;-80
2022/03/05 06:55:23;;;;;;;42.97;20.95;;;3.50;84.10;;;;;;5013119;28;20022;-80
2022/03/05 06:57:49;;;;;;;44.10;20.98;;;3.50;84.00;;;;;;5013392;28;20038;-82
2022/03/05 07:00:15;;;;;;;43.58;20.98;;;3.50;84.10;;;;;;5013659;28;20052;-83
2022/03/05 07:02:41;;;;;;;45.97;22.10;;;3.50;83.90;;;;;;5015850;28;20549;-82
2022/03/05 07:05:08;;;;;;;46.80;21.90;;;3.50;83.70;;;;;;5027046;28;20033;-81
2022/03/05 07:07:33;;;;;;;44.95;21.63;;;3.50;83.80;;;;;;5030668;28;20417;-81
2022/03/05 07:09:59;;;;;;;47.03;21.50;;;3.50;84.30;;;;;;5019920;28;20080;-81
2022/03/05 07:12:25;;;;;;;45.35;21.50;;;3.50;84.40;;;;;;5015360;28;20093;-81
2022/03/05 07:14:51;;;;;;;49.75;21.63;;;3.50;84.60;;;;;;5009171;28;20056;-81
2022/03/05 07:17:16;;;;;;;46.70;22.20;;;3.70;84.70;;;;;;5015824;28;20162;-80
2022/03/05 07:19:42;;;;;;;44.38;21.27;;;3.70;83.90;;;;;;5025820;28;20033;-81
2022/03/05 07:22:08;;;;;;;47.88;21.40;;;3.70;83.70;;;;;;5030755;28;20815;-79
2022/03/05 07:24:34;;;;;;;44.75;20.92;;;3.70;83.70;;;;;;5018547;28;20171;-80
2022/03/05 07:26:59;;;;;;;42.67;21.02;;;3.70;83.40;;;;;;5019427;28;20029;-79
2022/03/05 07:29:25;;;;;;;46.95;22.60;;;3.70;84.40;;;;;;5018417;28;20038;-81
2022/03/05 07:31:51;;;;;;;44.45;20.83;;;3.80;85.70;;;;;;5018485;28;20037;-82
2022/03/05 07:34:17;;;;;;;44.38;20.45;;;3.70;84.20;;;;;;5033983;28;20060;-84
2022/03/05 07:36:42;;;;;;;45.45;21.98;;;3.80;85.50;;;;;;5034581;28;20040;-83
2022/03/05 07:39:08;;;;;;;44.80;22.02;;;3.90;85.70;;;;;;5033038;28;20071;-80
2022/03/05 07:41:36;;;;;;;39.63;20.55;;;4.10;85.40;;;;;;5022725;28;20081;-79
2022/03/05 07:44:02;;;;;;;44.60;20.58;;;4.20;84.00;;;;;;5029247;28;20049;-81
2022/03/05 07:46:28;;;;;;;41.90;20.50;;;4.40;84.90;;;;;;5013452;28;20023;-80
2022/03/05 07:48:53;;;;;;;49.05;22.90;;;4.50;83.40;;;;;;5018296;28;20081;-78
2022/03/05 07:51:19;;;;;;;45.13;22.08;;;4.60;82.50;;;;;;5017704;28;20070;-80
2022/03/05 07:53:45;;;;;;;42.25;21.13;;;4.50;82.00;;;;;;5031410;28;20464;-79
2022/03/05 07:56:10;;;;;;;47.60;21.95;;;4.60;81.90;;;;;;5034667;28;20040;-80
2022/03/05 07:58:36;;;;;;;47.65;22.63;;;4.60;81.50;;;;;;5034209;28;20029;-81
2022/03/05 08:01:02;;;;;;;39.20;19.73;;;4.70;81.10;;;;;;5028509;28;20079;-80
2022/03/05 08:03:27;;;;;;;48.45;21.35;;;4.80;81.40;;;;;;5029933;28;20340;-80
2022/03/05 08:05:53;;;;;;;48.25;23.45;;;5.00;81.00;;;;;;5019808;28;20466;-81
2022/03/05 08:08:19;;;;;;;43.92;22.40;;;5.10;79.70;;;;;;5034213;28;20160;-83
2022/03/05 08:10:45;;;;;;;45.75;23.08;;;5.10;79.80;;;;;;5034678;28;20052;-79
2022/03/05 08:13:11;;;;;;;47.63;22.88;;;5.20;80.10;;;;;;5025579;28;20519;-85
2022/03/05 08:15:36;;;;;;;48.80;23.08;;;5.40;79.90;;;;;;5024520;28;20504;-86
2022/03/05 08:18:02;;;;;;;49.33;23.38;;;5.50;78.20;;;;;;5016802;28;20066;-85
2022/03/05 08:20:30;;;;;;;50.17;22.75;;;5.40;77.90;;;;;;5024074;28;20488;-80
2022/03/05 08:22:56;;;;;;;45.58;21.65;;;5.30;78.40;;;;;;5016171;28;20044;-84
2022/03/05 08:25:22;;;;;;;46.00;22.05;;;5.20;79.10;;;;;;5028718;28;20112;-81
2022/03/05 08:27:48;;;;;;;47.03;22.58;;;5.30;79.20;;;;;;5018801;28;20025;-78
2022/03/05 08:30:15;;;;;;;40.63;20.20;;;5.40;78.60;;;;;;5016733;28;20030;-82
2022/03/05 08:32:41;;;;;;;44.22;21.50;;;5.60;79.00;;;;;;5014647;28;20041;-80
2022/03/05 08:35:08;;;;;;;42.05;21.88;;;5.70;78.20;;;;;;5017331;28;20042;-81
2022/03/05 08:37:35;;;;;;;41.58;20.95;;;5.80;77.80;;;;;;5013228;28;20034;-81
2022/03/05 08:40:01;;;;;;;45.38;22.13;;;5.90;77.30;;;;;;5012575;28;20050;-80
2022/03/05 08:42:27;;;;;;;45.13;21.70;;;6.10;76.60;;;;;;5014085;28;20516;-78
2022/03/05 08:44:52;;;;;;;43.95;22.20;;;6.20;75.20;;;;;;5015015;28;20022;-78
2022/03/05 08:47:18;;;;;;;45.45;22.98;;;6.20;75.20;;;;;;5014660;28;20042;-77
2022/03/05 08:49:43;;;;;;;49.45;22.67;;;6.20;75.00;;;;;;5015062;28;20029;-76
2022/03/05 08:52:09;;;;;;;46.55;22.90;;;6.20;74.80;;;;;;5014943;28;20076;-77
2022/03/05 08:54:35;;;;;;;43.08;20.75;;;6.10;76.30;;;;;;5014609;28;20489;-78
2022/03/05 08:57:02;;;;;;;43.58;21.05;;;6.30;76.60;;;;;;5014531;28;20050;-79
2022/03/05 08:59:29;;;;;;;42.80;20.50;;;6.50;75.70;;;;;;5013669;28;20025;-79
2022/03/05 09:01:54;;;;;;;44.17;22.17;;;6.70;74.90;;;;;;5014623;28;20064;-80
2022/03/05 09:04:20;;;;;;;42.53;21.33;;;6.90;73.20;;;;;;5014612;28;20113;-80
2022/03/05 09:06:46;;;;;;;40.92;20.80;;;7.10;72.30;;;;;;5014693;28;20100;-78
2022/03/05 09:09:12;;;;;;;44.33;22.05;;;7.20;72.10;;;;;;5015107;28;20037;-80
2022/03/05 09:11:38;;;;;;;45.08;22.13;;;7.30;71.40;;;;;;5014372;28;20022;-77
2022/03/05 09:14:05;;;;;;;45.38;21.95;;;7.20;70.00;;;;;;5013871;28;20022;-78
2022/03/05 09:16:30;;;;;;;43.33;22.30;;;7.30;70.60;;;;;;5014437;28;20031;-79
2022/03/05 09:18:56;;;;;;;49.58;23.17;;;7.40;69.90;;;;;;5014387;28;20040;-80
2022/03/05 09:21:22;;;;;;;43.15;21.73;;;7.40;70.90;;;;;;5014504;28;20085;-84
2022/03/05 09:23:50;;;;;;;49.53;23.00;;;7.50;71.10;;;;;;5014473;28;20040;-85
2022/03/05 09:26:16;;;;;;;40.15;21.95;;;7.50;69.90;;;;;;5014556;28;20033;-84
2022/03/05 09:28:42;;;;;;;46.75;23.23;;;7.60;70.30;;;;;;5014764;28;20021;-83
2022/03/05 09:31:08;;;;;;;39.33;21.48;;;7.70;69.40;;;;;;5014531;28;20033;-83
2022/03/05 09:33:34;;;;;;;47.53;23.67;;;7.80;69.20;;;;;;5014564;28;20028;-81
2022/03/05 09:35:59;;;;;;;45.85;23.23;;;7.80;68.60;;;;;;5014243;28;20113;-82
2022/03/05 09:38:25;;;;;;;45.58;23.38;;;7.80;69.00;;;;;;5014560;28;20081;-81
2022/03/05 09:40:51;;;;;;;44.88;23.58;;;7.90;69.50;;;;;;5022970;28;20057;-82
2022/03/05 09:43:20;;;;;;;46.20;23.77;;;7.70;69.50;;;;;;5018569;28;20042;-82
2022/03/05 09:45:47;;;;;;;46.83;23.60;;;7.60;70.20;;;;;;5001009;28;20021;-81
2022/03/05 09:48:15;;;;;;;50.00;24.02;;;7.60;71.00;;;;;;5015621;28;20045;-84
2022/03/05 09:50:41;;;;;;;44.08;23.45;;;7.80;71.00;;;;;;5016255;28;20037;-80
2022/03/05 09:53:07;;;;;;;56.63;25.95;;;8.00;70.90;;;;;;5015039;28;20479;-78
2022/03/05 09:55:33;;;;;;;40.10;21.30;;;8.20;69.40;;;;;;5016235;28;20025;-82
2022/03/05 09:57:59;;;;;;;43.70;24.00;;;8.20;68.90;;;;;;5015404;28;20675;-84
2022/03/05 10:00:25;;;;;;;42.88;23.20;;;8.30;68.90;;;;;;5017164;28;20029;-80
2022/03/05 10:02:50;;;;;;;47.05;23.88;;;8.30;68.80;;;;;;5016359;28;20465;-83
2022/03/05 10:05:19;;;;;;;44.95;22.27;;;8.20;69.50;;;;;;5028383;28;20032;-77
2022/03/05 10:08:12;;;;;;;42.38;22.90;;;8.30;69.20;;;;;;5020383;28;20483;-80
2022/03/05 10:10:39;;;;;;;;;;;8.50;68.80;;;;;;5012994;28;20113;-79
2022/03/05 10:13:17;;;;;;;42.42;22.08;;;8.50;68.90;;;;;;5014399;28;19909;-86
2022/03/05 10:15:43;;;;;;;42.75;22.65;;;8.40;69.20;;;;;;5016038;28;20474;-82
2022/03/05 10:18:08;;;;;;;43.47;23.40;;;8.50;70.00;;;;;;5013628;28;20042;-82
2022/03/05 10:20:41;;;;;;;44.78;24.10;;;8.60;69.70;;;;;;5013926;28;20351;-79
2022/03/05 10:23:09;;;;;;;47.03;24.08;;;8.60;69.00;;;;;;5013907;28;20038;-80
2022/03/05 10:25:41;;;;;;;45.50;24.27;;;8.80;68.00;;;;;;5013309;28;20084;-82
2022/03/05 10:28:08;;;;;;;43.58;23.65;;;8.80;68.30;;;;;;5015680;28;20088;-84
2022/03/05 10:30:37;;;;;;;41.45;22.13;;;9.00;67.80;;;;;;5030464;28;20030;-84
2022/03/05 10:33:06;;;;;;;44.17;23.00;;;9.20;68.50;;;;;;5033432;28;20026;-83
2022/03/05 10:35:31;;;;;;;44.28;23.75;;;9.30;67.90;;;;;;5030773;28;20058;-84
2022/03/05 10:37:57;;;;;;;39.08;21.58;;;9.40;67.10;;;;;;5031999;28;20053;-84
2022/03/05 10:40:32;;;;;;;38.97;21.52;;;9.40;66.90;;;;;;5014586;28;20452;-85
2022/03/05 10:43:08;;;;;;;43.92;23.30;;;9.60;67.00;;;;;;5013231;28;20125;-85
2022/03/05 10:45:50;;;;;;;42.47;23.13;;;9.60;65.60;;;;;;5012581;28;20022;-84
2022/03/05 10:48:43;;;;;;;39.88;22.15;;;9.60;64.90;;;;;;5013001;28;20049;-85
2022/03/05 10:51:18;;;;;;;42.92;22.02;;;9.80;65.40;;;;;;5010234;28;20056;-84
2022/03/05 10:53:47;;;;;;;40.60;21.65;;;9.90;65.00;;;;;;5013140;28;20034;-84
2022/03/05 10:56:24;;;;;;;43.65;22.92;;;10.00;64.60;;;;;;5012840;28;20076;-85
2022/03/05 10:59:11;;;;;;;37.33;20.80;;;10.10;63.60;;;;;;5012845;28;20389;-85
2022/03/05 11:01:42;;;;;;;43.17;23.40;;;10.20;64.00;;;;;;5013354;28;20029;-85
2022/03/05 11:04:10;;;;;;;41.78;22.33;;;10.20;63.30;;;;;;5006785;28;20046;-85
2022/03/05 11:06:41;;;;;;;41.50;21.60;;;10.20;64.60;;;;;;5013112;28;20030;-85
2022/03/05 11:09:09;;;;;;;41.15;23.15;;;10.30;64.60;;;;;;5013004;28;20017;-85
2022/03/05 11:11:38;;;;;;;44.78;24.17;;;10.30;64.30;;;;;;5012885;28;20105;-84
2022/03/05 11:14:14;;;;;;;40.67;22.90;;;10.20;63.10;;;;;;5011022;28;20350;-84
2022/03/05 11:16:41;;;;;;;41.70;23.33;;;10.00;64.30;;;;;;5012917;28;20034;-85
2022/03/05 11:19:07;;;;;;;40.75;22.15;;;10.20;64.10;;;;;;5013130;28;20026;-85
2022/03/05 11:21:34;;;;;;;39.70;22.25;;;10.20;64.70;;;;;;5012914;28;20034;-85
2022/03/05 11:24:01;;;;;;;39.03;21.05;;;10.30;63.50;;;;;;5012653;28;20046;-83
2022/03/05 11:26:30;;;;;;;39.10;21.92;;;10.50;64.20;;;;;;5012835;28;20037;-83
2022/03/05 11:28:56;;;;;;;44.83;23.35;;;10.70;63.20;;;;;;5012799;28;20030;-83
2022/03/05 11:31:28;;;;;;;43.10;22.85;;;10.70;61.50;;;;;;5012704;28;20080;-83
2022/03/05 11:33:54;;;;;;;41.47;22.63;;;10.60;62.80;;;;;;5012600;28;20041;-83
2022/03/05 11:36:32;;;;;;;39.95;21.55;;;10.60;63.30;;;;;;5012385;28;20026;-84
2022/03/05 11:39:12;;;;;;;40.17;22.40;;;10.90;61.80;;;;;;5012289;28;20042;-82
2022/03/05 11:42:02;;;;;;;41.03;22.80;;;11.00;62.00;;;;;;5012247;28;20390;-84
2022/03/05 11:44:36;;;;;;;37.78;21.40;;;10.80;62.30;;;;;;5004596;28;20064;-84
2022/03/05 11:47:26;;;;;;;39.90;22.20;;;10.90;62.50;;;;;;5012403;28;20385;-84
2022/03/05 11:50:00;;;;;;;41.08;22.65;;;11.10;62.00;;;;;;5011409;28;20495;-84
2022/03/05 11:52:38;;;;;;;46.67;23.58;;;10.90;61.70;;;;;;5011359;28;20029;-81
2022/03/05 11:55:22;;;;;;;41.13;22.23;;;10.90;61.80;;;;;;5012297;28;20058;-81
2022/03/05 11:57:50;;;;;;;38.20;22.02;;;10.90;62.10;;;;;;5008333;28;20588;-83
2022/03/05 12:00:20;;;;;;;38.05;22.75;;;11.00;62.30;;;;;;5012204;28;20541;-82
2022/03/05 12:02:50;;;;;;;40.03;22.77;;;11.10;60.90;;;;;;5012666;28;20054;-82
2022/03/05 12:05:46;;;;;;;37.05;21.75;;;11.10;61.50;;;;;;5011950;28;20024;-80
2022/03/05 12:08:32;;;;;;;40.45;22.42;;;11.20;61.20;;;;;;4986392;28;20037;-79
2022/03/05 12:11:21;;;;;;;40.35;21.95;;;11.40;61.00;;;;;;5015866;28;20034;-79
2022/03/05 12:13:55;;;;;;;39.53;21.80;;;11.40;61.10;;;;;;5012139;28;20033;-79
2022/03/05 12:16:22;;;;;;;42.35;23.15;;;11.40;61.90;;;;;;5016021;28;20414;-80
2022/03/05 12:18:49;;;;;;;39.45;22.27;;;11.40;60.90;;;;;;5008836;28;20473;-81
2022/03/05 12:21:26;;;;;;;42.40;23.52;;;11.40;60.50;;;;;;5015867;28;20033;-80
2022/03/05 12:24:00;;;;;;;39.05;22.75;;;11.40;60.30;;;;;;4984416;28;20034;-82
2022/03/05 12:26:40;;;;;;;39.35;22.05;;;11.50;60.90;;;;;;5015272;28;20026;-81
2022/03/05 12:29:07;;;;;;;38.25;22.02;;;11.60;61.10;;;;;;5012926;28;20480;-81
2022/03/05 12:31:32;;;;;;;37.75;21.08;;;11.70;59.70;;;;;;5015331;28;20049;-82
2022/03/05 12:33:59;;;;;;;39.20;23.27;;;11.80;59.50;;;;;;5014711;28;20053;-82
2022/03/05 12:36:24;;;;;;;44.67;22.15;;;11.80;59.50;;;;;;5015551;28;20036;-83
2022/03/05 12:38:58;;;;;;;40.50;22.65;;;11.60;59.90;;;;;;5019477;28;20042;-82